sensor_id;sensor_type;location;lat;lon;timestamp;pressure;altitude;pressure_sealevel;temperature;humidity
37710;BME280;60223;34.854;-92.408;2023-02-01T00:00:31;101799.74;;;23.42;23.83
37710;BME280;60223;34.854;-92.408;2023-02-01T00:02:56;101784.74;;;23.50;23.45
37710;BME280;60223;34.854;-92.408;2023-02-01T00:05:22;101783.61;;;23.85;23.36
37710;BME280;60223;34.854;-92.408;2023-02-01T00:07:50;101772.34;;;23.71;23.50
37710;BME280;60223;34.854;-92.408;2023-02-01T00:10:13;101783.51;;;23.14;23.95
37710;BME280;60223;34.854;-92.408;2023-02-01T00:12:39;101804.36;;;22.69;24.53
37710;BME280;60223;34.854;-92.408;2023-02-01T00:15:06;101767.06;;;22.16;24.93
37710;BME280;60223;34.854;-92.408;2023-02-01T00:17:31;101756.55;;;22.47;24.96
37710;BME280;60223;34.854;-92.408;2023-02-01T00:19:54;101756.50;;;23.27;24.18
37710;BME280;60223;34.854;-92.408;2023-02-01T00:22:23;101750.88;;;23.48;23.71
37710;BME280;60223;34.854;-92.408;2023-02-01T00:24:48;101773.81;;;23.53;23.62
37710;BME280;60223;34.854;-92.408;2023-02-01T00:27:13;101773.77;;;23.76;23.42
37710;BME280;60223;34.854;-92.408;2023-02-01T00:29:40;101737.85;;;23.72;23.27
37710;BME280;60223;34.854;-92.408;2023-02-01T00:32:06;101769.27;;;23.20;23.79
37710;BME280;60223;34.854;-92.408;2023-02-01T00:34:31;101773.25;;;22.29;24.53
37710;BME280;60223;34.854;-92.408;2023-02-01T00:36:57;101750.41;;;22.49;24.83
37710;BME280;60223;34.854;-92.408;2023-02-01T00:39:23;101749.93;;;23.27;23.85
37710;BME280;60223;34.854;-92.408;2023-02-01T00:41:48;101748.19;;;23.08;24.07
37710;BME280;60223;34.854;-92.408;2023-02-01T00:44:14;101757.46;;;23.73;23.50
37710;BME280;60223;34.854;-92.408;2023-02-01T00:46:40;101766.52;;;23.90;23.42
37710;BME280;60223;34.854;-92.408;2023-02-01T00:49:05;101771.74;;;23.63;23.38
37710;BME280;60223;34.854;-92.408;2023-02-01T00:51:32;101769.07;;;23.91;23.33
37710;BME280;60223;34.854;-92.408;2023-02-01T00:53:57;101762.79;;;22.83;23.96
37710;BME280;60223;34.854;-92.408;2023-02-01T00:56:20;101778.91;;;22.27;24.82
37710;BME280;60223;34.854;-92.408;2023-02-01T00:58:48;101822.03;;;22.64;24.68
37710;BME280;60223;34.854;-92.408;2023-02-01T01:01:14;101798.63;;;22.03;24.83
37710;BME280;60223;34.854;-92.408;2023-02-01T01:03:41;101760.78;;;22.94;24.35
37710;BME280;60223;34.854;-92.408;2023-02-01T01:06:08;101736.97;;;23.38;23.79
37710;BME280;60223;34.854;-92.408;2023-02-01T01:08:32;101729.06;;;23.83;23.30
37710;BME280;60223;34.854;-92.408;2023-02-01T01:10:57;101777.36;;;23.79;23.27
37710;BME280;60223;34.854;-92.408;2023-02-01T01:13:23;101749.25;;;24.28;22.97
37710;BME280;60223;34.854;-92.408;2023-02-01T01:15:48;101758.64;;;22.60;24.08
37710;BME280;60223;34.854;-92.408;2023-02-01T01:18:13;101758.84;;;22.63;24.28
37710;BME280;60223;34.854;-92.408;2023-02-01T01:20:41;101749.06;;;22.31;24.59
37710;BME280;60223;34.854;-92.408;2023-02-01T01:23:06;101774.61;;;22.38;24.56
37710;BME280;60223;34.854;-92.408;2023-02-01T01:25:32;101805.52;;;22.26;24.51
37710;BME280;60223;34.854;-92.408;2023-02-01T01:27:57;101833.49;;;23.13;23.90
37710;BME280;60223;34.854;-92.408;2023-02-01T01:30:22;101823.38;;;23.71;23.30
37710;BME280;60223;34.854;-92.408;2023-02-01T01:32:45;101818.20;;;23.73;23.14
37710;BME280;60223;34.854;-92.408;2023-02-01T01:35:15;101768.07;;;23.98;22.92
37710;BME280;60223;34.854;-92.408;2023-02-01T01:37:39;101750.18;;;22.73;23.79
37710;BME280;60223;34.854;-92.408;2023-02-01T01:40:06;101819.96;;;22.50;24.17
37710;BME280;60223;34.854;-92.408;2023-02-01T01:42:36;101799.72;;;22.62;24.21
37710;BME280;60223;34.854;-92.408;2023-02-01T01:45:04;101863.15;;;22.21;24.68
37710;BME280;60223;34.854;-92.408;2023-02-01T01:47:21;101848.12;;;22.70;24.08
37710;BME280;60223;34.854;-92.408;2023-02-01T01:49:48;101813.66;;;23.41;23.67
37710;BME280;60223;34.854;-92.408;2023-02-01T01:52:13;101802.84;;;23.71;23.17
37710;BME280;60223;34.854;-92.408;2023-02-01T01:54:42;101838.52;;;24.14;22.78
37710;BME280;60223;34.854;-92.408;2023-02-01T01:57:09;101833.71;;;24.20;22.70
37710;BME280;60223;34.854;-92.408;2023-02-01T01:59:31;101856.74;;;23.19;23.32
37710;BME280;60223;34.854;-92.408;2023-02-01T02:01:56;101867.57;;;22.82;24.05
37710;BME280;60223;34.854;-92.408;2023-02-01T02:04:23;101885.63;;;22.72;24.26
37710;BME280;60223;34.854;-92.408;2023-02-01T02:06:52;101891.52;;;22.43;24.63
37710;BME280;60223;34.854;-92.408;2023-02-01T02:09:12;101869.24;;;22.32;24.45
37710;BME280;60223;34.854;-92.408;2023-02-01T02:11:39;101848.83;;;22.91;23.93
37710;BME280;60223;34.854;-92.408;2023-02-01T02:14:07;101833.70;;;23.57;23.31
37710;BME280;60223;34.854;-92.408;2023-02-01T02:16:47;101823.56;;;23.80;22.98
37710;BME280;60223;34.854;-92.408;2023-02-01T02:19:09;101791.48;;;23.70;22.96
37710;BME280;60223;34.854;-92.408;2023-02-01T02:21:38;101796.66;;;24.09;22.83
37710;BME280;60223;34.854;-92.408;2023-02-01T02:24:03;101816.73;;;23.12;23.28
37710;BME280;60223;34.854;-92.408;2023-02-01T02:26:33;101825.73;;;22.75;23.83
37710;BME280;60223;34.854;-92.408;2023-02-01T02:28:50;101817.74;;;22.59;24.14
37710;BME280;60223;34.854;-92.408;2023-02-01T02:31:24;101813.88;;;22.30;24.41
37710;BME280;60223;34.854;-92.408;2023-02-01T02:33:52;101828.87;;;22.20;24.41
37710;BME280;60223;34.854;-92.408;2023-02-01T02:36:03;101864.00;;;23.37;23.54
37710;BME280;60223;34.854;-92.408;2023-02-01T02:38:30;101862.43;;;23.85;23.00
37710;BME280;60223;34.854;-92.408;2023-02-01T02:40:51;101839.85;;;23.85;22.88
37710;BME280;60223;34.854;-92.408;2023-02-01T02:43:18;101827.72;;;23.92;22.75
37710;BME280;60223;34.854;-92.408;2023-02-01T02:45:44;101831.45;;;23.06;23.10
37710;BME280;60223;34.854;-92.408;2023-02-01T02:48:09;101826.39;;;22.75;23.48
37710;BME280;60223;34.854;-92.408;2023-02-01T02:50:34;101817.39;;;22.53;24.04
37710;BME280;60223;34.854;-92.408;2023-02-01T02:53:02;101807.63;;;22.39;24.23
37710;BME280;60223;34.854;-92.408;2023-02-01T02:55:21;101814.04;;;22.12;24.34
37710;BME280;60223;34.854;-92.408;2023-02-01T02:57:48;101828.16;;;23.28;23.40
37710;BME280;60223;34.854;-92.408;2023-02-01T03:00:17;101829.95;;;23.91;22.79
37710;BME280;60223;34.854;-92.408;2023-02-01T03:02:41;101810.39;;;23.82;22.70
37710;BME280;60223;34.854;-92.408;2023-02-01T03:05:04;101803.98;;;23.12;23.13
37710;BME280;60223;34.854;-92.408;2023-02-01T03:07:47;101764.27;;;23.50;22.90
37710;BME280;60223;34.854;-92.408;2023-02-01T03:09:56;101765.99;;;22.89;23.31
37710;BME280;60223;34.854;-92.408;2023-02-01T03:27:01;101863.95;;;23.70;22.51
37710;BME280;60223;34.854;-92.408;2023-02-01T03:29:27;101865.63;;;23.37;22.66
37710;BME280;60223;34.854;-92.408;2023-02-01T03:31:48;101890.49;;;22.69;23.25
37710;BME280;60223;34.854;-92.408;2023-02-01T03:34:14;101885.11;;;22.50;23.42
37710;BME280;60223;34.854;-92.408;2023-02-01T03:36:43;101874.37;;;22.39;23.48
37710;BME280;60223;34.854;-92.408;2023-02-01T03:39:09;101891.41;;;22.18;23.73
37710;BME280;60223;34.854;-92.408;2023-02-01T03:41:37;101881.61;;;23.05;22.81
37710;BME280;60223;34.854;-92.408;2023-02-01T03:44:00;101871.97;;;23.37;22.71
37710;BME280;60223;34.854;-92.408;2023-02-01T03:46:27;101875.98;;;23.36;22.49
37710;BME280;60223;34.854;-92.408;2023-02-01T03:48:48;101893.85;;;23.69;22.41
37710;BME280;60223;34.854;-92.408;2023-02-01T03:51:13;101882.05;;;23.48;22.53
37710;BME280;60223;34.854;-92.408;2023-02-01T03:53:40;101887.87;;;22.99;22.97
37710;BME280;60223;34.854;-92.408;2023-02-01T03:56:03;101907.86;;;22.64;23.28
37710;BME280;60223;34.854;-92.408;2023-02-01T03:58:30;101937.88;;;22.38;23.51
37710;BME280;60223;34.854;-92.408;2023-02-01T04:00:59;101895.94;;;22.04;23.64
37710;BME280;60223;34.854;-92.408;2023-02-01T04:03:22;101867.63;;;23.08;22.94
37710;BME280;60223;34.854;-92.408;2023-02-01T04:05:48;101869.20;;;23.45;22.60
37710;BME280;60223;34.854;-92.408;2023-02-01T04:08:14;101855.15;;;23.58;22.48
37710;BME280;60223;34.854;-92.408;2023-02-01T04:10:39;101842.69;;;23.86;22.23
37710;BME280;60223;34.854;-92.408;2023-02-01T04:13:05;101825.74;;;23.10;22.78
37710;BME280;60223;34.854;-92.408;2023-02-01T04:15:31;101813.02;;;22.52;23.27
37710;BME280;60223;34.854;-92.408;2023-02-01T04:17:57;101826.16;;;22.48;23.35
37710;BME280;60223;34.854;-92.408;2023-02-01T04:20:20;101873.47;;;22.34;23.46
37710;BME280;60223;34.854;-92.408;2023-02-01T04:22:48;101888.99;;;22.42;23.61
37710;BME280;60223;34.854;-92.408;2023-02-01T04:25:13;101887.76;;;23.15;22.82
37710;BME280;60223;34.854;-92.408;2023-02-01T04:27:39;101876.94;;;23.39;22.58
37710;BME280;60223;34.854;-92.408;2023-02-01T04:30:06;101892.27;;;23.46;22.48
37710;BME280;60223;34.854;-92.408;2023-02-01T04:32:31;101881.08;;;23.80;22.21
37710;BME280;60223;34.854;-92.408;2023-02-01T04:34:54;101866.90;;;23.23;22.42
37710;BME280;60223;34.854;-92.408;2023-02-01T04:37:22;101873.09;;;22.90;22.95
37710;BME280;60223;34.854;-92.408;2023-02-01T04:39:47;101878.42;;;22.35;23.40
37710;BME280;60223;34.854;-92.408;2023-02-01T04:42:13;101879.56;;;22.40;23.35
37710;BME280;60223;34.854;-92.408;2023-02-01T04:44:39;101875.31;;;22.37;23.38
37710;BME280;60223;34.854;-92.408;2023-02-01T04:47:05;101856.70;;;22.15;23.58
37710;BME280;60223;34.854;-92.408;2023-02-01T04:49:31;101847.91;;;21.92;23.78
37710;BME280;60223;34.854;-92.408;2023-02-01T04:51:57;101858.42;;;21.91;23.79
37710;BME280;60223;34.854;-92.408;2023-02-01T04:54:19;101848.81;;;22.09;23.65
37710;BME280;60223;34.854;-92.408;2023-02-01T04:56:48;101832.24;;;22.04;23.83
37710;BME280;60223;34.854;-92.408;2023-02-01T04:59:13;101825.44;;;21.61;23.97
37710;BME280;60223;34.854;-92.408;2023-02-01T05:01:39;101799.13;;;21.38;24.14
37710;BME280;60223;34.854;-92.408;2023-02-01T05:04:02;101802.35;;;21.62;23.88
37710;BME280;60223;34.854;-92.408;2023-02-01T05:06:32;101822.06;;;21.50;24.13
37710;BME280;60223;34.854;-92.408;2023-02-01T05:08:55;101837.94;;;21.46;24.13
37710;BME280;60223;34.854;-92.408;2023-02-01T05:11:19;101858.86;;;21.44;24.31
37710;BME280;60223;34.854;-92.408;2023-02-01T05:13:48;101866.73;;;20.93;24.50
37710;BME280;60223;34.854;-92.408;2023-02-01T05:16:13;101880.79;;;20.76;24.62
37710;BME280;60223;34.854;-92.408;2023-02-01T05:18:39;101869.96;;;20.95;24.39
37710;BME280;60223;34.854;-92.408;2023-02-01T05:21:05;101873.72;;;20.82;24.68
37710;BME280;60223;34.854;-92.408;2023-02-01T05:23:31;101875.81;;;20.66;24.78
37710;BME280;60223;34.854;-92.408;2023-02-01T05:26:00;101860.72;;;20.98;24.45
37710;BME280;60223;34.854;-92.408;2023-02-01T05:28:19;101854.43;;;20.72;24.80
37710;BME280;60223;34.854;-92.408;2023-02-01T05:30:46;101856.96;;;20.52;24.69
37710;BME280;60223;34.854;-92.408;2023-02-01T05:33:14;101852.00;;;20.76;24.47
37710;BME280;60223;34.854;-92.408;2023-02-01T05:35:39;101858.94;;;20.23;24.83
37710;BME280;60223;34.854;-92.408;2023-02-01T05:38:05;101885.22;;;20.65;24.66
37710;BME280;60223;34.854;-92.408;2023-02-01T05:40:31;101915.22;;;20.58;24.49
37710;BME280;60223;34.854;-92.408;2023-02-01T05:42:56;101934.43;;;20.99;24.29
37710;BME280;60223;34.854;-92.408;2023-02-01T05:45:22;101916.40;;;20.21;24.68
37710;BME280;60223;34.854;-92.408;2023-02-01T05:47:47;101892.45;;;20.38;24.51
37710;BME280;60223;34.854;-92.408;2023-02-01T05:50:14;101879.03;;;20.34;24.68
37710;BME280;60223;34.854;-92.408;2023-02-01T05:52:40;101858.72;;;20.30;24.67
37710;BME280;60223;34.854;-92.408;2023-02-01T05:55:05;101823.80;;;20.00;24.63
37710;BME280;60223;34.854;-92.408;2023-02-01T05:57:31;101791.95;;;20.33;24.76
37710;BME280;60223;34.854;-92.408;2023-02-01T05:59:57;101848.75;;;20.26;24.60
37710;BME280;60223;34.854;-92.408;2023-02-01T06:02:23;101869.85;;;20.30;24.53
37710;BME280;60223;34.854;-92.408;2023-02-01T06:04:48;101882.08;;;20.09;24.63
37710;BME280;60223;34.854;-92.408;2023-02-01T06:07:13;101901.69;;;19.27;25.13
37710;BME280;60223;34.854;-92.408;2023-02-01T06:09:39;101889.95;;;20.25;24.62
37710;BME280;60223;34.854;-92.408;2023-02-01T06:12:06;101849.90;;;19.95;24.80
37710;BME280;60223;34.854;-92.408;2023-02-01T06:14:32;101813.84;;;20.20;24.36
37710;BME280;60223;34.854;-92.408;2023-02-01T06:16:57;101808.91;;;20.32;24.43
37710;BME280;60223;34.854;-92.408;2023-02-01T06:19:22;101825.20;;;19.51;24.89
37710;BME280;60223;34.854;-92.408;2023-02-01T06:21:49;101841.17;;;19.89;24.71
37710;BME280;60223;34.854;-92.408;2023-02-01T06:24:14;101860.13;;;19.68;24.88
37710;BME280;60223;34.854;-92.408;2023-02-01T06:26:40;101828.20;;;19.59;24.96
37710;BME280;60223;34.854;-92.408;2023-02-01T06:29:06;101820.45;;;19.63;24.84
37710;BME280;60223;34.854;-92.408;2023-02-01T06:31:32;101791.81;;;19.62;24.82
37710;BME280;60223;34.854;-92.408;2023-02-01T06:33:57;101759.27;;;19.68;24.77
37710;BME280;60223;34.854;-92.408;2023-02-01T06:36:21;101763.43;;;20.01;24.43
37710;BME280;60223;34.854;-92.408;2023-02-01T06:38:49;101766.24;;;20.11;24.32
37710;BME280;60223;34.854;-92.408;2023-02-01T06:41:14;101781.60;;;19.62;24.65
37710;BME280;60223;34.854;-92.408;2023-02-01T06:43:40;101788.69;;;19.26;24.96
37710;BME280;60223;34.854;-92.408;2023-02-01T06:46:09;101794.18;;;19.52;24.70
37710;BME280;60223;34.854;-92.408;2023-02-01T06:48:33;101781.97;;;19.93;24.51
37710;BME280;60223;34.854;-92.408;2023-02-01T06:50:56;101770.40;;;19.46;24.68
37710;BME280;60223;34.854;-92.408;2023-02-01T06:53:23;101778.06;;;19.17;24.87
37710;BME280;60223;34.854;-92.408;2023-02-01T06:55:54;101779.49;;;19.16;24.85
37710;BME280;60223;34.854;-92.408;2023-02-01T06:58:14;101773.67;;;18.96;25.01
37710;BME280;60223;34.854;-92.408;2023-02-01T07:00:41;101796.13;;;19.20;24.94
37710;BME280;60223;34.854;-92.408;2023-02-01T07:03:07;101810.86;;;19.70;24.49
37710;BME280;60223;34.854;-92.408;2023-02-01T07:05:33;101792.17;;;18.88;24.92
37710;BME280;60223;34.854;-92.408;2023-02-01T07:07:59;101808.01;;;19.41;24.85
37710;BME280;60223;34.854;-92.408;2023-02-01T07:10:24;101820.11;;;19.26;24.94
37710;BME280;60223;34.854;-92.408;2023-02-01T07:12:47;101837.01;;;19.14;25.00
37710;BME280;60223;34.854;-92.408;2023-02-01T07:15:15;101843.88;;;19.13;24.64
37710;BME280;60223;34.854;-92.408;2023-02-01T07:17:39;101859.43;;;18.92;24.96
37710;BME280;60223;34.854;-92.408;2023-02-01T07:20:08;101891.60;;;19.56;24.63
37710;BME280;60223;34.854;-92.408;2023-02-01T07:22:33;101897.51;;;19.30;24.58
37710;BME280;60223;34.854;-92.408;2023-02-01T07:24:59;101874.63;;;20.30;23.88
37710;BME280;60223;34.854;-92.408;2023-02-01T07:27:25;101849.03;;;19.22;24.74
37710;BME280;60223;34.854;-92.408;2023-02-01T07:29:50;101858.94;;;19.49;24.35
37710;BME280;60223;34.854;-92.408;2023-02-01T07:32:14;101856.57;;;19.46;24.52
37710;BME280;60223;34.854;-92.408;2023-02-01T07:34:42;101850.89;;;18.69;24.91
37710;BME280;60223;34.854;-92.408;2023-02-01T07:37:07;101854.47;;;19.39;24.42
37710;BME280;60223;34.854;-92.408;2023-02-01T07:39:34;101896.06;;;19.19;24.61
37710;BME280;60223;34.854;-92.408;2023-02-01T07:41:59;101906.03;;;19.22;24.56
37710;BME280;60223;34.854;-92.408;2023-02-01T07:44:26;101919.86;;;19.93;24.14
37710;BME280;60223;34.854;-92.408;2023-02-01T07:46:51;101915.02;;;20.45;23.46
37710;BME280;60223;34.854;-92.408;2023-02-01T07:49:17;101874.63;;;18.50;25.03
37710;BME280;60223;34.854;-92.408;2023-02-01T07:51:40;101891.70;;;20.02;23.76
37710;BME280;60223;34.854;-92.408;2023-02-01T07:54:08;101870.82;;;19.07;24.27
37710;BME280;60223;34.854;-92.408;2023-02-01T07:56:35;101885.18;;;19.18;24.42
37710;BME280;60223;34.854;-92.408;2023-02-01T07:58:59;101893.55;;;18.79;24.69
37710;BME280;60223;34.854;-92.408;2023-02-01T08:01:27;101911.43;;;19.31;24.25
37710;BME280;60223;34.854;-92.408;2023-02-01T08:03:48;101889.37;;;18.86;24.77
37710;BME280;60223;34.854;-92.408;2023-02-01T08:06:18;101865.52;;;19.71;23.81
37710;BME280;60223;34.854;-92.408;2023-02-01T08:08:41;101873.59;;;19.02;24.35
37710;BME280;60223;34.854;-92.408;2023-02-01T08:11:10;101868.72;;;19.41;24.07
37710;BME280;60223;34.854;-92.408;2023-02-01T08:13:34;101864.33;;;19.22;24.37
37710;BME280;60223;34.854;-92.408;2023-02-01T08:16:02;101850.37;;;18.06;25.11
37710;BME280;60223;34.854;-92.408;2023-02-01T08:18:26;101864.10;;;20.03;23.84
37710;BME280;60223;34.854;-92.408;2023-02-01T08:20:50;101855.71;;;18.91;24.56
37710;BME280;60223;34.854;-92.408;2023-02-01T08:23:18;101834.76;;;20.14;23.33
37710;BME280;60223;34.854;-92.408;2023-02-01T08:25:43;101830.62;;;19.46;24.03
37710;BME280;60223;34.854;-92.408;2023-02-01T08:28:10;101833.69;;;19.34;23.89
37710;BME280;60223;34.854;-92.408;2023-02-01T08:30:36;101830.84;;;20.04;23.68
37710;BME280;60223;34.854;-92.408;2023-02-01T08:33:01;101832.34;;;20.20;23.08
37710;BME280;60223;34.854;-92.408;2023-02-01T08:35:27;101853.69;;;20.00;23.67
37710;BME280;60223;34.854;-92.408;2023-02-01T08:37:54;101881.49;;;19.64;23.71
37710;BME280;60223;34.854;-92.408;2023-02-01T08:40:19;101888.12;;;19.94;23.44
37710;BME280;60223;34.854;-92.408;2023-02-01T08:42:45;101890.41;;;20.11;23.48
37710;BME280;60223;34.854;-92.408;2023-02-01T08:45:11;101873.41;;;20.32;23.03
37710;BME280;60223;34.854;-92.408;2023-02-01T08:47:34;101852.59;;;18.64;24.22
37710;BME280;60223;34.854;-92.408;2023-02-01T08:50:02;101820.13;;;18.83;24.09
37710;BME280;60223;34.854;-92.408;2023-02-01T08:52:27;101810.35;;;18.84;24.27
37710;BME280;60223;34.854;-92.408;2023-02-01T08:54:53;101827.19;;;19.72;23.70
37710;BME280;60223;34.854;-92.408;2023-02-01T08:57:19;101827.33;;;18.65;24.40
37710;BME280;60223;34.854;-92.408;2023-02-01T08:59:45;101841.14;;;19.58;23.65
37710;BME280;60223;34.854;-92.408;2023-02-01T09:02:12;101845.18;;;18.72;24.50
37710;BME280;60223;34.854;-92.408;2023-02-01T09:04:37;101852.57;;;20.42;23.06
37710;BME280;60223;34.854;-92.408;2023-02-01T09:07:03;101854.38;;;19.65;23.24
37710;BME280;60223;34.854;-92.408;2023-02-01T09:09:31;101851.67;;;19.52;23.80
37710;BME280;60223;34.854;-92.408;2023-02-01T09:11:52;101876.15;;;19.10;23.64
37710;BME280;60223;34.854;-92.408;2023-02-01T09:14:20;101873.78;;;19.05;24.10
37710;BME280;60223;34.854;-92.408;2023-02-01T09:16:46;101868.20;;;19.83;23.42
37710;BME280;60223;34.854;-92.408;2023-02-01T09:19:12;101877.81;;;19.81;23.36
37710;BME280;60223;34.854;-92.408;2023-02-01T09:21:38;101876.99;;;20.24;23.00
37710;BME280;60223;34.854;-92.408;2023-02-01T09:24:04;101868.45;;;19.82;23.32
37710;BME280;60223;34.854;-92.408;2023-02-01T09:26:29;101865.64;;;18.94;23.79
37710;BME280;60223;34.854;-92.408;2023-02-01T09:28:53;101861.98;;;19.19;23.76
37710;BME280;60223;34.854;-92.408;2023-02-01T09:31:21;101860.80;;;20.27;22.88
37710;BME280;60223;34.854;-92.408;2023-02-01T09:33:46;101849.92;;;19.03;23.84
37710;BME280;60223;34.854;-92.408;2023-02-01T09:36:12;101848.51;;;20.17;22.97
37710;BME280;60223;34.854;-92.408;2023-02-01T09:38:39;101841.18;;;19.38;23.61
37710;BME280;60223;34.854;-92.408;2023-02-01T09:41:07;101862.01;;;19.77;23.23
37710;BME280;60223;34.854;-92.408;2023-02-01T09:43:38;101854.59;;;19.15;23.51
37710;BME280;60223;34.854;-92.408;2023-02-01T09:46:01;101837.72;;;19.16;23.73
37710;BME280;60223;34.854;-92.408;2023-02-01T09:48:26;101844.06;;;18.92;23.83
37710;BME280;60223;34.854;-92.408;2023-02-01T09:50:48;101840.41;;;19.74;23.22
37710;BME280;60223;34.854;-92.408;2023-02-01T09:53:18;101829.60;;;19.73;23.15
37710;BME280;60223;34.854;-92.408;2023-02-01T09:55:43;101834.10;;;19.93;22.98
37710;BME280;60223;34.854;-92.408;2023-02-01T09:58:07;101821.86;;;19.73;23.11
37710;BME280;60223;34.854;-92.408;2023-02-01T10:00:34;101830.03;;;19.47;23.28
37710;BME280;60223;34.854;-92.408;2023-02-01T10:02:58;101857.47;;;19.09;23.54
37710;BME280;60223;34.854;-92.408;2023-02-01T10:05:30;101864.64;;;19.83;22.98
37710;BME280;60223;34.854;-92.408;2023-02-01T10:07:56;101828.70;;;19.73;23.01
37710;BME280;60223;34.854;-92.408;2023-02-01T10:10:19;101824.19;;;18.63;24.01
37710;BME280;60223;34.854;-92.408;2023-02-01T10:13:00;101823.02;;;19.34;23.46
37710;BME280;60223;34.854;-92.408;2023-02-01T10:15:15;101812.54;;;19.74;23.15
37710;BME280;60223;34.854;-92.408;2023-02-01T10:17:41;101817.30;;;20.10;22.95
37710;BME280;60223;34.854;-92.408;2023-02-01T10:20:03;101808.33;;;19.15;23.41
37710;BME280;60223;34.854;-92.408;2023-02-01T10:22:31;101807.54;;;19.71;23.38
37710;BME280;60223;34.854;-92.408;2023-02-01T10:24:49;101816.94;;;19.79;23.12
37710;BME280;60223;34.854;-92.408;2023-02-01T10:27:18;101818.68;;;19.89;23.08
37710;BME280;60223;34.854;-92.408;2023-02-01T10:29:44;101832.50;;;20.14;22.84
37710;BME280;60223;34.854;-92.408;2023-02-01T10:32:10;101841.71;;;20.16;23.01
37710;BME280;60223;34.854;-92.408;2023-02-01T10:34:35;101830.60;;;20.38;22.81
37710;BME280;60223;34.854;-92.408;2023-02-01T10:36:59;101836.92;;;19.76;23.12
37710;BME280;60223;34.854;-92.408;2023-02-01T10:39:22;101866.43;;;19.65;23.16
37710;BME280;60223;34.854;-92.408;2023-02-01T10:41:50;101870.68;;;20.20;22.73
37710;BME280;60223;34.854;-92.408;2023-02-01T10:44:19;101866.25;;;20.35;22.64
37710;BME280;60223;34.854;-92.408;2023-02-01T10:46:41;101881.76;;;20.74;22.57
37710;BME280;60223;34.854;-92.408;2023-02-01T10:49:10;101857.23;;;20.74;22.28
37710;BME280;60223;34.854;-92.408;2023-02-01T10:51:38;101846.39;;;21.35;22.25
37710;BME280;60223;34.854;-92.408;2023-02-01T10:54:02;101829.40;;;21.44;22.31
37710;BME280;60223;34.854;-92.408;2023-02-01T10:56:26;101842.89;;;19.83;23.34
37710;BME280;60223;34.854;-92.408;2023-02-01T10:58:50;101846.77;;;20.34;22.78
37710;BME280;60223;34.854;-92.408;2023-02-01T11:01:21;101842.28;;;21.23;22.25
37710;BME280;60223;34.854;-92.408;2023-02-01T11:03:44;101838.00;;;21.54;22.22
37710;BME280;60223;34.854;-92.408;2023-02-01T11:06:18;101841.32;;;21.31;22.25
37710;BME280;60223;34.854;-92.408;2023-02-01T11:08:34;101856.39;;;21.03;22.18
37710;BME280;60223;34.854;-92.408;2023-02-01T11:11:00;101872.61;;;21.02;22.29
37710;BME280;60223;34.854;-92.408;2023-02-01T11:13:29;101880.93;;;21.54;22.15
37710;BME280;60223;34.854;-92.408;2023-02-01T11:15:56;101893.28;;;21.62;22.17
37710;BME280;60223;34.854;-92.408;2023-02-01T11:18:20;101908.54;;;20.87;22.80
37710;BME280;60223;34.854;-92.408;2023-02-01T11:20:43;101899.64;;;21.53;22.43
37710;BME280;60223;34.854;-92.408;2023-02-01T11:23:12;101890.78;;;21.85;22.15
37710;BME280;60223;34.854;-92.408;2023-02-01T11:25:36;101905.72;;;21.66;22.13
37710;BME280;60223;34.854;-92.408;2023-02-01T11:28:00;101909.13;;;21.51;22.31
37710;BME280;60223;34.854;-92.408;2023-02-01T11:30:33;101910.81;;;21.55;22.34
37710;BME280;60223;34.854;-92.408;2023-02-01T11:32:51;101935.38;;;21.77;22.27
37710;BME280;60223;34.854;-92.408;2023-02-01T11:35:20;101935.77;;;21.79;22.31
37710;BME280;60223;34.854;-92.408;2023-02-01T11:37:45;101928.30;;;21.58;22.33
37710;BME280;60223;34.854;-92.408;2023-02-01T11:40:25;101911.71;;;21.69;22.32
37710;BME280;60223;34.854;-92.408;2023-02-01T11:42:32;101916.60;;;21.77;22.34
37710;BME280;60223;34.854;-92.408;2023-02-01T11:47:25;101919.81;;;22.35;22.13
37710;BME280;60223;34.854;-92.408;2023-02-01T11:49:53;101944.42;;;22.14;22.17
37710;BME280;60223;34.854;-92.408;2023-02-01T11:52:26;101929.46;;;22.25;22.10
37710;BME280;60223;34.854;-92.408;2023-02-01T11:54:57;101923.77;;;22.14;22.10
37710;BME280;60223;34.854;-92.408;2023-02-01T11:57:20;101923.94;;;22.22;22.11
37710;BME280;60223;34.854;-92.408;2023-02-01T11:59:49;101914.97;;;22.24;22.18
37710;BME280;60223;34.854;-92.408;2023-02-01T12:02:17;101917.33;;;22.60;22.09
37710;BME280;60223;34.854;-92.408;2023-02-01T12:04:45;101914.91;;;22.23;22.31
37710;BME280;60223;34.854;-92.408;2023-02-01T12:21:41;101878.00;;;22.67;22.22
37710;BME280;60223;34.854;-92.408;2023-02-01T12:24:06;101879.75;;;22.73;22.16
37710;BME280;60223;34.854;-92.408;2023-02-01T12:31:24;101926.62;;;22.28;22.50
37710;BME280;60223;34.854;-92.408;2023-02-01T12:33:47;101930.95;;;22.26;22.52
37710;BME280;60223;34.854;-92.408;2023-02-01T12:36:12;101912.77;;;22.62;22.18
37710;BME280;60223;34.854;-92.408;2023-02-01T12:38:39;101905.36;;;23.01;22.06
37710;BME280;60223;34.854;-92.408;2023-02-01T12:41:03;101909.37;;;22.80;22.03
37710;BME280;60223;34.854;-92.408;2023-02-01T12:43:19;101920.00;;;23.09;21.99
37710;BME280;60223;34.854;-92.408;2023-02-01T12:45:47;101934.54;;;23.13;21.97
37710;BME280;60223;34.854;-92.408;2023-02-01T12:48:21;101930.87;;;22.82;21.83
37710;BME280;60223;34.854;-92.408;2023-02-01T12:50:43;101920.40;;;22.52;22.10
37710;BME280;60223;34.854;-92.408;2023-02-01T12:53:06;101933.01;;;22.52;22.12
37710;BME280;60223;34.854;-92.408;2023-02-01T12:55:34;101958.07;;;22.36;22.30
37710;BME280;60223;34.854;-92.408;2023-02-01T12:57:55;101965.14;;;22.07;22.49